Willow Park, Texas
Current Conditions -  °F | °C
As of 10:53 PM on Sunday 19 Oct 2014 (Local Time) from KMWL Reporting Station
Clear Clear  
Wind Chill: 65°   Ceiling: Unl
Heat Index: 65°   Visibility: 10mi
Dew Point: 58°   Wind: 7mph
Humidity: 78%   Direction: 140°SE
Pressure: 30.05"   Gusts: NA
Location:  32.7558°N, 97.7972°W
Report Text: KMWL 200353Z AUTO 14006KT 10SM CLR 18/14 A3005 RMK AO2 SLP167 T01830144
Loading
Personal Weather Stations






























Interactive Weather Map
Tropical Storm Tracking
New forecast layout! Learn more

10-Day Weather Forecast

Advertisements
Track Severe Weather on mobile